Ambler, Alaska
Current Conditions -  °F | °C
As of 3:36 AM on Sunday 21 Dec 2014 (Local Time) from PAFM Reporting Station
Clear Clear  
Wind Chill: -23°   Ceiling: Unl
Heat Index: -16°   Visibility: 10mi
Dew Point: -23°   Wind: 8mph
Humidity: 56%   Direction: 30°NNE
Pressure: 29.36"   Gusts: NA
Location:  67.09°N, 157.85°W
Report Text: PAFM 211236Z AUTO 03007KT 10SM CLR M16/M23 A2936 RMK AO1
Loading
Personal Weather Stations






























Interactive Weather Map New forecast layout! Learn more

10-Day Weather Forecast

Advertisements
Track Severe Weather on mobile